Philip, SD

2:19 PM MDT on August 29, 2014 (GMT -0600)
Faith | Change Station
CLOSE
Current Station
Airport
Location: Faith,
Elevation: 2582 ft
Nearby Weather Stations

Elev 2582 ft 45.03 °N, 102.02 °W | Updated 23 minutes ago

Thunderstorm
Thunderstorm
68 °F
Feels Like 68 °F
N
10
Wind Variable Wind from NNW
Gusts 14 mph

Today
High -- | Low -- °F
--% Chance of Precip.
Yesterday
High -- | Low -- °F
Precip. -- in
6:06 AM 7:27 PM
Waxing Crescent, 16% visible
Pressure 29.94 in
Visibility -9999.0 miles
Clouds
Dew Point 58 °F
Humidity 70%
Rainfall 0.00 in
Snow Depth Not available.
UV Not available.
Pollen 9.20 out of 12
Air Quality Not available.
Flu Activity Not available.
METAR KD07 291956Z AUTO 33009KT 20/14 A2996 RMK AO1 SLP137 T02000144

More Conditions Fewer Conditions

Pressure 29.94 in
Visibility -9999.0 miles
Clouds
Dew Point 58 °F
Humidity 70%
Rainfall 0.00 in
Snow Depth Not available.
UV Not available.
Pollen 9.20 out of 12
Air Quality Not available.
Flu Activity Not available.
METAR KD07 291956Z AUTO 33009KT 20/14 A2996 RMK AO1 SLP137 T02000144

More Conditions Fewer Conditions

10-Day Weather Forecast

Almanac

Astronomy

Aug. 29, 2014 Rise Set
Actual Time 6:06 AM MDT 7:27 PM MDT
Civil Twilight 5:36 AM MDT 7:57 PM MDT
Nautical Twilight 5:00 AM MDT 8:33 PM MDT
Astronomical Twilight 4:21 AM MDT 9:11 PM MDT
Moon 10:07 AM MDT 9:16 PM MDT
Length of Visible Light 14h 21m
Length of Day
13h 21m
Tomorrow will be 2m 53s shorter.
Waxing Crescent, 16% of the Moon is Illuminated
Today
Waxing Crescent
Sep 2
First Quarter
Sep 8
Full
Sep 15
Last Quarter
Sep 24
New

Today's Extremes

State Highs State Lows

Community

WunderPhotos

Upload Photos

1,748,333 photos uploaded!

WunderBlogs® & News

By Dr. Jeff Masters
Director of Meteorology, Weather Underground
By Kari Strenfel
Meteorologist, Weather Underground
By Christopher C. Burt
Weather Historian, Weather Underground
August 29, 2014
August 29, 2014
August 29, 2014

Nearby

Snow Depth

Station Depth Elevation
Blind Park 0 in 6890 ft

Earthquake Activity

City Distance Mag. Time & Date
No recent earthquake activity has been reported nearby.
Minimum magnitude displayed is 2.5.

Coastal Water Temperatures

Place Temperature
No Stations Reporting

Nearby Weather Stations